Kezdőlap
METAR-TAF:

METAR-TAF

Repülőterek :

Rarotonga, Cook-szigetek

földrajzi szélesség: 21-12S, földrajzi hosszúság: 159-49W, magasság: 7 m

Jelenlegi meteorológiai megfigyelések

A jelentés 11 perccel ezelõtt készült, 19:00 UTC
Kelet-északkeleti szél 5 kt
Hőmérséklet 25°C
Páratartalom 89%
Légköri nyomás 1019 hPa
Látótávolság 10 km, vagy több
Kevés felhő 1000 lábon
Szakadozott felhőzet 4500 lábon

METAR: NCRG 191900Z 07005KT 9999 FEW010 BKN045 25/23 Q1019

Idő: 09:11 (19:11 UTC)

Előrejelzés

A jelentés 2 órával és 7 perccel ezelõtt készült, 17:04 UTC
Az előrejelzés 19-én 18 óra UTC és 20-én 18 óra UTC között érvényes
Keleti szél 5 kt
Látótávolság 10 km, vagy több
Kevés felhő 1000 lábon
Szakadozott felhőzet 10000 lábon

TAF: NCRG 191704Z 1918/2018 08005KT 9999 FEW010 BKN100

Meteorológiai megfigyelések és előrejelzések több, mint 4000 repülőtéren (METAR és TAF jelentéseket).

A térképen piros és sárga pontok jelzik az elérhető meteorológiai állomásokat.

Mozgassa az egeret a pont fölött, hogy megjelenjen az állomás neve.

Azután kattintson az időjárási megfigyelések és előrejelzések megtekintéséhez.

A térkép megváltoztatása: kattintson a fekete keresztel jelölt zöld gombra ráközelítéshez, a vonallal jelölt zöld gombra távolításhoz, vagy a zöld nyilakra a szomszédos térképek eléréséhez.


METAR-TAF: